sensor_id;sensor_type;location;lat;lon;timestamp;pressure;altitude;pressure_sealevel;temperature;humidity
37832;BME280;23671;38.090;-122.570;2023-08-07T00:01:47;101234.44;;;35.02;36.20
37832;BME280;23671;38.090;-122.570;2023-08-07T00:04:14;101235.28;;;34.98;36.65
37832;BME280;23671;38.090;-122.570;2023-08-07T00:06:41;101231.09;;;34.95;36.63
37832;BME280;23671;38.090;-122.570;2023-08-07T00:09:08;101220.69;;;34.92;36.63
37832;BME280;23671;38.090;-122.570;2023-08-07T00:11:35;101223.44;;;34.92;36.77
37832;BME280;23671;38.090;-122.570;2023-08-07T00:14:02;101229.16;;;34.91;36.26
37832;BME280;23671;38.090;-122.570;2023-08-07T00:16:30;101219.56;;;34.88;36.55
37832;BME280;23671;38.090;-122.570;2023-08-07T00:18:57;101213.78;;;34.85;36.33
37832;BME280;23671;38.090;-122.570;2023-08-07T00:21:24;101216.00;;;34.88;36.14
37832;BME280;23671;38.090;-122.570;2023-08-07T00:23:51;101212.69;;;34.86;36.39
37832;BME280;23671;38.090;-122.570;2023-08-07T00:26:18;101212.13;;;34.84;35.96
37832;BME280;23671;38.090;-122.570;2023-08-07T00:28:45;101202.78;;;34.79;35.90
37832;BME280;23671;38.090;-122.570;2023-08-07T00:31:12;101207.97;;;34.71;35.91
37832;BME280;23671;38.090;-122.570;2023-08-07T00:33:39;101211.00;;;34.79;35.71
37832;BME280;23671;38.090;-122.570;2023-08-07T00:36:07;101202.22;;;34.72;35.67
37832;BME280;23671;38.090;-122.570;2023-08-07T00:38:34;101207.66;;;34.67;35.72
37832;BME280;23671;38.090;-122.570;2023-08-07T00:41:01;101207.66;;;34.67;35.26
37832;BME280;23671;38.090;-122.570;2023-08-07T00:43:28;101204.69;;;34.69;35.78
37832;BME280;23671;38.090;-122.570;2023-08-07T00:45:55;101204.91;;;34.62;35.42
37832;BME280;23671;38.090;-122.570;2023-08-07T00:48:23;101192.31;;;34.61;35.40
37832;BME280;23671;38.090;-122.570;2023-08-07T00:50:52;101197.53;;;34.63;35.22
37832;BME280;23671;38.090;-122.570;2023-08-07T00:53:20;101203.25;;;34.56;35.23
37832;BME280;23671;38.090;-122.570;2023-08-07T00:55:47;101190.88;;;34.49;35.11
37832;BME280;23671;38.090;-122.570;2023-08-07T00:58:15;101198.25;;;34.48;35.33
37832;BME280;23671;38.090;-122.570;2023-08-07T01:00:42;101194.97;;;34.46;35.19
37832;BME280;23671;38.090;-122.570;2023-08-07T01:03:11;101193.28;;;34.40;35.32
37832;BME280;23671;38.090;-122.570;2023-08-07T01:05:40;101191.63;;;34.39;35.16
37832;BME280;23671;38.090;-122.570;2023-08-07T01:08:08;101195.13;;;34.30;35.55
37832;BME280;23671;38.090;-122.570;2023-08-07T01:13:34;101191.53;;;34.24;35.44
37832;BME280;23671;38.090;-122.570;2023-08-07T01:16:22;101186.31;;;34.23;35.43
37832;BME280;23671;38.090;-122.570;2023-08-07T01:18:54;101193.16;;;34.20;35.11
37832;BME280;23671;38.090;-122.570;2023-08-07T01:21:23;101188.72;;;34.14;35.47
37832;BME280;23671;38.090;-122.570;2023-08-07T01:23:50;101185.41;;;34.07;35.00
37832;BME280;23671;38.090;-122.570;2023-08-07T01:26:19;101187.59;;;34.10;34.74
37832;BME280;23671;38.090;-122.570;2023-08-07T01:29:16;101182.63;;;34.02;35.07
37832;BME280;23671;38.090;-122.570;2023-08-07T01:31:50;101183.44;;;33.98;35.40
37832;BME280;23671;38.090;-122.570;2023-08-07T01:34:21;101182.53;;;33.92;35.23
37832;BME280;23671;38.090;-122.570;2023-08-07T01:36:51;101180.88;;;33.91;35.68
37832;BME280;23671;38.090;-122.570;2023-08-07T01:39:20;101182.53;;;33.92;35.03
37832;BME280;23671;38.090;-122.570;2023-08-07T01:41:51;101174.19;;;33.77;34.86
37832;BME280;23671;38.090;-122.570;2023-08-07T01:44:18;101166.53;;;33.79;35.21
37832;BME280;23671;38.090;-122.570;2023-08-07T01:46:45;101161.59;;;33.76;34.97
37832;BME280;23671;38.090;-122.570;2023-08-07T01:49:12;101169.44;;;33.62;35.09
37832;BME280;23671;38.090;-122.570;2023-08-07T01:51:39;101168.66;;;33.67;34.66
37832;BME280;23671;38.090;-122.570;2023-08-07T01:54:06;101175.94;;;33.56;34.60
37832;BME280;23671;38.090;-122.570;2023-08-07T01:56:33;101173.09;;;33.46;34.62
37832;BME280;23671;38.090;-122.570;2023-08-07T01:59:01;101173.31;;;33.40;34.85
37832;BME280;23671;38.090;-122.570;2023-08-07T02:01:28;101167.53;;;33.36;34.20
37832;BME280;23671;38.090;-122.570;2023-08-07T02:03:55;101170.22;;;33.31;34.27
37832;BME280;23671;38.090;-122.570;2023-08-07T02:06:22;101171.72;;;33.17;34.13
37832;BME280;23671;38.090;-122.570;2023-08-07T02:08:49;101179.44;;;33.20;34.20
37832;BME280;23671;38.090;-122.570;2023-08-07T02:11:16;101183.22;;;33.14;34.17
37832;BME280;23671;38.090;-122.570;2023-08-07T02:13:44;101170.25;;;33.04;34.08
37832;BME280;23671;38.090;-122.570;2023-08-07T02:16:11;101175.69;;;32.99;34.00
37832;BME280;23671;38.090;-122.570;2023-08-07T02:18:38;101179.66;;;32.92;34.31
37832;BME280;23671;38.090;-122.570;2023-08-07T02:21:05;101184.00;;;32.88;33.91
37832;BME280;23671;38.090;-122.570;2023-08-07T02:23:32;101182.59;;;32.85;33.87
37832;BME280;23671;38.090;-122.570;2023-08-07T02:26:01;101186.97;;;32.86;34.29
37832;BME280;23671;38.090;-122.570;2023-08-07T02:28:28;101182.03;;;32.83;33.78
37832;BME280;23671;38.090;-122.570;2023-08-07T02:30:55;101192.97;;;32.83;33.43
37832;BME280;23671;38.090;-122.570;2023-08-07T02:33:22;101193.41;;;32.75;34.05
37832;BME280;23671;38.090;-122.570;2023-08-07T02:35:49;101188.22;;;32.74;33.52
37832;BME280;23671;38.090;-122.570;2023-08-07T02:38:17;101193.69;;;32.74;33.82
37832;BME280;23671;38.090;-122.570;2023-08-07T02:40:44;101194.75;;;32.73;34.23
37832;BME280;23671;38.090;-122.570;2023-08-07T02:43:11;101190.06;;;32.68;34.41
37832;BME280;23671;38.090;-122.570;2023-08-07T02:45:38;101193.28;;;32.65;34.11
37832;BME280;23671;38.090;-122.570;2023-08-07T02:48:06;101194.31;;;32.59;34.45
37832;BME280;23671;38.090;-122.570;2023-08-07T02:50:33;101187.94;;;32.54;34.79
37832;BME280;23671;38.090;-122.570;2023-08-07T02:53:00;101193.09;;;32.50;34.64
37832;BME280;23671;38.090;-122.570;2023-08-07T02:55:27;101199.91;;;32.48;34.65
37832;BME280;23671;38.090;-122.570;2023-08-07T02:57:55;101202.53;;;32.43;34.49
37832;BME280;23671;38.090;-122.570;2023-08-07T03:00:22;101203.28;;;32.38;33.89
37832;BME280;23671;38.090;-122.570;2023-08-07T03:02:49;101205.41;;;32.31;34.06
37832;BME280;23671;38.090;-122.570;2023-08-07T03:05:16;101211.59;;;32.27;34.26
37832;BME280;23671;38.090;-122.570;2023-08-07T03:07:43;101202.50;;;32.21;34.74
37832;BME280;23671;38.090;-122.570;2023-08-07T03:10:10;101208.97;;;32.15;34.42
37832;BME280;23671;38.090;-122.570;2023-08-07T03:12:38;101206.19;;;32.10;34.02
37832;BME280;23671;38.090;-122.570;2023-08-07T03:15:06;101205.28;;;32.04;34.08
37832;BME280;23671;38.090;-122.570;2023-08-07T03:17:33;101210.06;;;31.97;33.94
37832;BME280;23671;38.090;-122.570;2023-08-07T03:20:00;101204.53;;;31.92;34.13
37832;BME280;23671;38.090;-122.570;2023-08-07T03:22:27;101220.00;;;31.87;34.73
37832;BME280;23671;38.090;-122.570;2023-08-07T03:24:54;101210.66;;;31.83;34.42
37832;BME280;23671;38.090;-122.570;2023-08-07T03:27:21;101207.50;;;31.74;33.92
37832;BME280;23671;38.090;-122.570;2023-08-07T03:29:48;101211.00;;;31.70;34.16
37832;BME280;23671;38.090;-122.570;2023-08-07T03:32:15;101202.69;;;31.65;34.37
37832;BME280;23671;38.090;-122.570;2023-08-07T03:34:42;101207.50;;;31.58;34.14
37832;BME280;23671;38.090;-122.570;2023-08-07T03:37:09;101218.09;;;31.54;34.44
37832;BME280;23671;38.090;-122.570;2023-08-07T03:39:36;101224.22;;;31.45;34.29
37832;BME280;23671;38.090;-122.570;2023-08-07T03:42:03;101217.84;;;31.39;34.23
37832;BME280;23671;38.090;-122.570;2023-08-07T03:44:30;101210.84;;;31.31;33.88
37832;BME280;23671;38.090;-122.570;2023-08-07T03:46:59;101214.03;;;31.28;34.18
37832;BME280;23671;38.090;-122.570;2023-08-07T03:49:26;101213.63;;;31.20;34.23
37832;BME280;23671;38.090;-122.570;2023-08-07T03:51:53;101219.47;;;31.12;34.46
37832;BME280;23671;38.090;-122.570;2023-08-07T03:54:21;101220.91;;;31.03;33.80
37832;BME280;23671;38.090;-122.570;2023-08-07T03:56:48;101226.66;;;30.90;33.75
37832;BME280;23671;38.090;-122.570;2023-08-07T03:59:17;101229.72;;;30.82;33.50
37832;BME280;23671;38.090;-122.570;2023-08-07T04:01:44;101230.59;;;30.71;33.70
37832;BME280;23671;38.090;-122.570;2023-08-07T04:04:11;101243.91;;;30.67;33.77
37832;BME280;23671;38.090;-122.570;2023-08-07T04:06:38;101248.88;;;30.59;33.46
37832;BME280;23671;38.090;-122.570;2023-08-07T04:09:05;101246.75;;;30.49;33.67
37832;BME280;23671;38.090;-122.570;2023-08-07T04:11:32;101252.00;;;30.39;33.63
37832;BME280;23671;38.090;-122.570;2023-08-07T04:14:00;101251.88;;;30.34;34.02
37832;BME280;23671;38.090;-122.570;2023-08-07T04:16:27;101261.00;;;30.28;33.99
37832;BME280;23671;38.090;-122.570;2023-08-07T04:18:54;101261.56;;;30.18;34.08
37832;BME280;23671;38.090;-122.570;2023-08-07T04:21:21;101259.19;;;30.10;33.76
37832;BME280;23671;38.090;-122.570;2023-08-07T04:23:48;101254.31;;;30.01;33.61
37832;BME280;23671;38.090;-122.570;2023-08-07T04:26:17;101264.63;;;29.99;34.20
37832;BME280;23671;38.090;-122.570;2023-08-07T04:28:44;101261.06;;;29.87;33.96
37832;BME280;23671;38.090;-122.570;2023-08-07T04:31:11;101265.56;;;29.81;33.83
37832;BME280;23671;38.090;-122.570;2023-08-07T04:33:39;101269.44;;;29.74;33.42
37832;BME280;23671;38.090;-122.570;2023-08-07T04:36:06;101262.03;;;29.63;33.75
37832;BME280;23671;38.090;-122.570;2023-08-07T04:38:33;101268.41;;;29.56;33.62
37832;BME280;23671;38.090;-122.570;2023-08-07T04:41:00;101269.72;;;29.54;34.01
37832;BME280;23671;38.090;-122.570;2023-08-07T04:43:27;101270.28;;;29.44;33.92
37832;BME280;23671;38.090;-122.570;2023-08-07T04:45:54;101270.97;;;29.40;34.22
37832;BME280;23671;38.090;-122.570;2023-08-07T04:48:21;101267.13;;;29.29;34.09
37832;BME280;23671;38.090;-122.570;2023-08-07T04:50:51;101270.56;;;29.25;34.40
37832;BME280;23671;38.090;-122.570;2023-08-07T04:53:18;101271.09;;;29.15;34.07
37832;BME280;23671;38.090;-122.570;2023-08-07T04:55:45;101268.19;;;29.10;34.35
37832;BME280;23671;38.090;-122.570;2023-08-07T04:58:12;101278.34;;;29.03;34.19
37832;BME280;23671;38.090;-122.570;2023-08-07T05:00:40;101272.75;;;28.98;34.18
37832;BME280;23671;38.090;-122.570;2023-08-07T05:03:07;101281.84;;;28.92;34.17
37832;BME280;23671;38.090;-122.570;2023-08-07T05:05:34;101280.00;;;28.86;34.23
37832;BME280;23671;38.090;-122.570;2023-08-07T05:08:01;101283.25;;;28.77;34.57
37832;BME280;23671;38.090;-122.570;2023-08-07T05:10:28;101275.63;;;28.85;34.60
37832;BME280;23671;38.090;-122.570;2023-08-07T05:12:56;101279.84;;;28.81;34.39
37832;BME280;23671;38.090;-122.570;2023-08-07T05:15:26;101275.72;;;28.79;34.17
37832;BME280;23671;38.090;-122.570;2023-08-07T05:17:55;101274.50;;;28.75;34.52
37832;BME280;23671;38.090;-122.570;2023-08-07T05:20:22;101272.91;;;28.67;34.13
37832;BME280;23671;38.090;-122.570;2023-08-07T05:22:49;101268.63;;;28.59;34.49
37832;BME280;23671;38.090;-122.570;2023-08-07T05:25:17;101275.59;;;28.49;34.19
37832;BME280;23671;38.090;-122.570;2023-08-07T05:27:45;101276.84;;;28.46;34.76
37832;BME280;23671;38.090;-122.570;2023-08-07T05:30:13;101270.91;;;28.38;34.42
37832;BME280;23671;38.090;-122.570;2023-08-07T05:32:40;101271.19;;;28.30;34.64
37832;BME280;23671;38.090;-122.570;2023-08-07T05:35:08;101273.34;;;28.21;34.70
37832;BME280;23671;38.090;-122.570;2023-08-07T05:37:36;101283.22;;;28.16;34.81
37832;BME280;23671;38.090;-122.570;2023-08-07T05:40:03;101272.03;;;28.06;34.84
37832;BME280;23671;38.090;-122.570;2023-08-07T05:42:31;101275.03;;;27.98;34.73
37832;BME280;23671;38.090;-122.570;2023-08-07T05:44:59;101274.19;;;27.91;34.78
37832;BME280;23671;38.090;-122.570;2023-08-07T05:47:26;101275.53;;;27.81;35.05
37832;BME280;23671;38.090;-122.570;2023-08-07T05:49:53;101275.78;;;27.73;35.01
37832;BME280;23671;38.090;-122.570;2023-08-07T05:52:20;101280.84;;;27.70;34.98
37832;BME280;23671;38.090;-122.570;2023-08-07T05:54:47;101273.41;;;27.59;34.98
37832;BME280;23671;38.090;-122.570;2023-08-07T05:57:14;101280.72;;;27.58;35.07
37832;BME280;23671;38.090;-122.570;2023-08-07T05:59:41;101278.25;;;27.50;35.06
37832;BME280;23671;38.090;-122.570;2023-08-07T06:02:08;101280.59;;;27.40;35.35
37832;BME280;23671;38.090;-122.570;2023-08-07T06:04:37;101283.59;;;27.32;35.30
37832;BME280;23671;38.090;-122.570;2023-08-07T06:07:05;101268.94;;;27.27;35.31
37832;BME280;23671;38.090;-122.570;2023-08-07T06:09:33;101281.94;;;27.18;35.41
37832;BME280;23671;38.090;-122.570;2023-08-07T06:12:00;101275.13;;;27.09;35.29
37832;BME280;23671;38.090;-122.570;2023-08-07T06:14:27;101287.44;;;27.05;35.58
37832;BME280;23671;38.090;-122.570;2023-08-07T06:16:55;101280.16;;;26.99;35.46
37832;BME280;23671;38.090;-122.570;2023-08-07T06:19:24;101282.47;;;26.89;35.57
37832;BME280;23671;38.090;-122.570;2023-08-07T06:21:53;101273.34;;;26.83;35.49
37832;BME280;23671;38.090;-122.570;2023-08-07T06:24:20;101279.16;;;26.80;35.51
37832;BME280;23671;38.090;-122.570;2023-08-07T06:26:48;101275.03;;;26.71;35.53
37832;BME280;23671;38.090;-122.570;2023-08-07T06:29:15;101280.66;;;26.63;35.72
37832;BME280;23671;38.090;-122.570;2023-08-07T06:31:42;101274.19;;;26.58;35.85
37832;BME280;23671;38.090;-122.570;2023-08-07T06:34:09;101278.81;;;26.51;35.91
37832;BME280;23671;38.090;-122.570;2023-08-07T06:36:37;101282.13;;;26.46;35.78
37832;BME280;23671;38.090;-122.570;2023-08-07T06:39:04;101279.25;;;26.35;35.94
37832;BME280;23671;38.090;-122.570;2023-08-07T06:41:31;101283.63;;;26.29;35.81
37832;BME280;23671;38.090;-122.570;2023-08-07T06:43:58;101275.72;;;26.21;36.07
37832;BME280;23671;38.090;-122.570;2023-08-07T06:46:25;101285.28;;;26.17;36.00
37832;BME280;23671;38.090;-122.570;2023-08-07T06:48:54;101290.53;;;26.12;36.16
37832;BME280;23671;38.090;-122.570;2023-08-07T06:51:21;101286.78;;;26.06;36.05
37832;BME280;23671;38.090;-122.570;2023-08-07T06:53:48;101294.22;;;25.98;36.16
37832;BME280;23671;38.090;-122.570;2023-08-07T06:56:15;101294.84;;;25.87;36.35
37832;BME280;23671;38.090;-122.570;2023-08-07T06:58:42;101297.13;;;25.83;36.26
37832;BME280;23671;38.090;-122.570;2023-08-07T07:01:09;101297.97;;;25.77;36.28
37832;BME280;23671;38.090;-122.570;2023-08-07T07:03:36;101300.47;;;25.72;36.56
37832;BME280;23671;38.090;-122.570;2023-08-07T07:06:03;101299.59;;;25.65;36.56
37832;BME280;23671;38.090;-122.570;2023-08-07T07:08:31;101298.75;;;25.58;36.74
37832;BME280;23671;38.090;-122.570;2023-08-07T07:10:58;101297.50;;;25.54;36.56
37832;BME280;23671;38.090;-122.570;2023-08-07T07:13:25;101305.41;;;25.49;36.88
37832;BME280;23671;38.090;-122.570;2023-08-07T07:15:55;101305.75;;;25.40;36.87
37832;BME280;23671;38.090;-122.570;2023-08-07T07:18:22;101301.38;;;25.39;36.84
37832;BME280;23671;38.090;-122.570;2023-08-07T07:20:57;101295.75;;;25.34;36.78
37832;BME280;23671;38.090;-122.570;2023-08-07T07:23:28;101299.22;;;25.21;37.15
37832;BME280;23671;38.090;-122.570;2023-08-07T07:25:55;101303.59;;;25.15;37.09
37832;BME280;23671;38.090;-122.570;2023-08-07T07:28:22;101306.88;;;25.11;36.94
37832;BME280;23671;38.090;-122.570;2023-08-07T07:30:50;101308.94;;;25.02;37.11
37832;BME280;23671;38.090;-122.570;2023-08-07T07:33:20;101302.69;;;25.02;36.90
37832;BME280;23671;38.090;-122.570;2023-08-07T07:35:47;101308.91;;;24.96;37.24
37832;BME280;23671;38.090;-122.570;2023-08-07T07:38:14;101302.44;;;24.90;37.17
37832;BME280;23671;38.090;-122.570;2023-08-07T07:40:42;101301.38;;;24.85;37.05
37832;BME280;23671;38.090;-122.570;2023-08-07T07:43:10;101302.56;;;24.76;37.23
37832;BME280;23671;38.090;-122.570;2023-08-07T07:45:37;101296.69;;;24.72;37.42
37832;BME280;23671;38.090;-122.570;2023-08-07T07:48:04;101309.09;;;24.67;37.27
37832;BME280;23671;38.090;-122.570;2023-08-07T07:50:32;101302.25;;;24.64;37.43
37832;BME280;23671;38.090;-122.570;2023-08-07T07:52:59;101300.97;;;24.60;37.48
37832;BME280;23671;38.090;-122.570;2023-08-07T07:55:26;101298.44;;;24.52;37.60
37832;BME280;23671;38.090;-122.570;2023-08-07T07:57:55;101305.84;;;24.44;37.69
37832;BME280;23671;38.090;-122.570;2023-08-07T08:00:22;101312.28;;;24.43;37.78
37832;BME280;23671;38.090;-122.570;2023-08-07T08:02:53;101295.19;;;24.35;37.47
37832;BME280;23671;38.090;-122.570;2023-08-07T08:05:20;101303.06;;;24.30;37.76
37832;BME280;23671;38.090;-122.570;2023-08-07T08:07:47;101295.34;;;24.27;37.77
37832;BME280;23671;38.090;-122.570;2023-08-07T08:10:15;101297.16;;;24.20;37.84
37832;BME280;23671;38.090;-122.570;2023-08-07T08:12:42;101298.41;;;24.18;37.65
37832;BME280;23671;38.090;-122.570;2023-08-07T08:15:09;101287.94;;;24.08;37.96
37832;BME280;23671;38.090;-122.570;2023-08-07T08:17:36;101286.66;;;24.04;37.79
37832;BME280;23671;38.090;-122.570;2023-08-07T08:20:04;101291.41;;;24.02;37.94
37832;BME280;23671;38.090;-122.570;2023-08-07T08:22:31;101287.19;;;24.00;37.93
37832;BME280;23671;38.090;-122.570;2023-08-07T08:24:58;101285.47;;;23.92;37.95
37832;BME280;23671;38.090;-122.570;2023-08-07T08:27:25;101281.91;;;23.85;37.90
37832;BME280;23671;38.090;-122.570;2023-08-07T08:29:52;101276.88;;;23.82;38.27
37832;BME280;23671;38.090;-122.570;2023-08-07T08:32:19;101278.09;;;23.80;38.09
37832;BME280;23671;38.090;-122.570;2023-08-07T08:34:46;101279.06;;;23.72;38.08
37832;BME280;23671;38.090;-122.570;2023-08-07T08:37:16;101276.94;;;23.68;38.16
37832;BME280;23671;38.090;-122.570;2023-08-07T08:39:43;101281.25;;;23.62;38.43
37832;BME280;23671;38.090;-122.570;2023-08-07T08:42:12;101277.06;;;23.60;38.33
37832;BME280;23671;38.090;-122.570;2023-08-07T08:44:52;101278.03;;;23.52;38.50
37832;BME280;23671;38.090;-122.570;2023-08-07T08:47:21;101272.75;;;23.44;38.57
37832;BME280;23671;38.090;-122.570;2023-08-07T08:50:16;101270.44;;;23.41;38.55
37832;BME280;23671;38.090;-122.570;2023-08-07T08:52:44;101278.06;;;23.37;38.54
37832;BME280;23671;38.090;-122.570;2023-08-07T08:55:12;101268.22;;;23.30;38.57
37832;BME280;23671;38.090;-122.570;2023-08-07T08:57:40;101269.63;;;23.26;38.61
37832;BME280;23671;38.090;-122.570;2023-08-07T09:00:08;101279.09;;;23.22;38.66
37832;BME280;23671;38.090;-122.570;2023-08-07T09:02:48;101273.91;;;23.20;38.66
37832;BME280;23671;38.090;-122.570;2023-08-07T09:05:17;101270.75;;;23.17;38.85
37832;BME280;23671;38.090;-122.570;2023-08-07T09:07:44;101257.78;;;23.06;38.79
37832;BME280;23671;38.090;-122.570;2023-08-07T09:10:14;101257.13;;;23.04;38.76
37832;BME280;23671;38.090;-122.570;2023-08-07T09:12:49;101264.94;;;22.99;38.88
37832;BME280;23671;38.090;-122.570;2023-08-07T09:15:17;101252.84;;;22.95;38.86
37832;BME280;23671;38.090;-122.570;2023-08-07T09:17:45;101264.03;;;22.92;38.91
37832;BME280;23671;38.090;-122.570;2023-08-07T09:20:13;101265.81;;;22.85;39.01
37832;BME280;23671;38.090;-122.570;2023-08-07T09:22:42;101259.78;;;22.83;39.15
37832;BME280;23671;38.090;-122.570;2023-08-07T09:25:09;101263.03;;;22.78;39.15
37832;BME280;23671;38.090;-122.570;2023-08-07T09:27:38;101264.41;;;22.74;39.03
37832;BME280;23671;38.090;-122.570;2023-08-07T09:30:05;101258.13;;;22.67;39.21
37832;BME280;23671;38.090;-122.570;2023-08-07T09:32:35;101252.28;;;22.64;39.12
37832;BME280;23671;38.090;-122.570;2023-08-07T09:35:03;101253.84;;;22.58;39.32
37832;BME280;23671;38.090;-122.570;2023-08-07T09:37:36;101256.72;;;22.56;39.39
37832;BME280;23671;38.090;-122.570;2023-08-07T09:40:05;101259.56;;;22.55;39.30
37832;BME280;23671;38.090;-122.570;2023-08-07T09:42:33;101252.22;;;22.49;39.44
37832;BME280;23671;38.090;-122.570;2023-08-07T09:47:30;101257.34;;;22.44;39.45
37832;BME280;23671;38.090;-122.570;2023-08-07T09:49:57;101251.38;;;22.34;39.50
37832;BME280;23671;38.090;-122.570;2023-08-07T09:52:25;101256.31;;;22.30;39.58
37832;BME280;23671;38.090;-122.570;2023-08-07T09:54:56;101259.72;;;22.24;39.63
37832;BME280;23671;38.090;-122.570;2023-08-07T09:57:24;101266.97;;;22.24;39.67
37832;BME280;23671;38.090;-122.570;2023-08-07T09:59:51;101256.94;;;22.18;39.79
37832;BME280;23671;38.090;-122.570;2023-08-07T10:02:19;101259.34;;;22.13;39.89
37832;BME280;23671;38.090;-122.570;2023-08-07T10:04:48;101262.22;;;22.11;39.68
37832;BME280;23671;38.090;-122.570;2023-08-07T10:07:17;101268.31;;;22.05;39.95
37832;BME280;23671;38.090;-122.570;2023-08-07T10:09:45;101271.34;;;22.02;39.84
37832;BME280;23671;38.090;-122.570;2023-08-07T10:12:13;101266.34;;;21.99;40.09
37832;BME280;23671;38.090;-122.570;2023-08-07T10:14:41;101272.47;;;21.93;40.02
37832;BME280;23671;38.090;-122.570;2023-08-07T10:17:08;101274.22;;;21.86;40.14
37832;BME280;23671;38.090;-122.570;2023-08-07T10:19:36;101270.03;;;21.84;40.22
37832;BME280;23671;38.090;-122.570;2023-08-07T10:22:06;101267.16;;;21.77;40.24
37832;BME280;23671;38.090;-122.570;2023-08-07T10:24:36;101266.53;;;21.75;40.17
37832;BME280;23671;38.090;-122.570;2023-08-07T10:27:04;101265.69;;;21.75;40.23
37832;BME280;23671;38.090;-122.570;2023-08-07T10:29:32;101263.19;;;21.73;40.14
37832;BME280;23671;38.090;-122.570;2023-08-07T10:32:00;101265.38;;;21.69;40.11
37832;BME280;23671;38.090;-122.570;2023-08-07T10:34:34;101264.25;;;21.64;40.28
37832;BME280;23671;38.090;-122.570;2023-08-07T10:37:01;101260.91;;;21.62;40.29
37832;BME280;23671;38.090;-122.570;2023-08-07T10:39:28;101256.25;;;21.56;40.47
37832;BME280;23671;38.090;-122.570;2023-08-07T10:41:55;101251.25;;;21.53;40.32
37832;BME280;23671;38.090;-122.570;2023-08-07T10:44:24;101238.19;;;21.50;40.50
37832;BME280;23671;38.090;-122.570;2023-08-07T10:46:56;101233.66;;;21.42;40.54
37832;BME280;23671;38.090;-122.570;2023-08-07T10:49:43;101245.25;;;21.43;40.69
37832;BME280;23671;38.090;-122.570;2023-08-07T10:52:14;101256.06;;;21.35;40.53
37832;BME280;23671;38.090;-122.570;2023-08-07T10:54:46;101242.63;;;21.35;40.78
37832;BME280;23671;38.090;-122.570;2023-08-07T10:57:14;101241.16;;;21.32;40.65
37832;BME280;23671;38.090;-122.570;2023-08-07T11:02:29;101244.56;;;21.26;40.60
37832;BME280;23671;38.090;-122.570;2023-08-07T11:04:56;101243.88;;;21.24;41.08
37832;BME280;23671;38.090;-122.570;2023-08-07T11:07:25;101242.38;;;21.22;40.77
37832;BME280;23671;38.090;-122.570;2023-08-07T11:09:55;101241.72;;;21.20;40.90
37832;BME280;23671;38.090;-122.570;2023-08-07T11:12:28;101232.34;;;21.16;40.82
37832;BME280;23671;38.090;-122.570;2023-08-07T11:14:56;101241.44;;;21.15;40.92
37832;BME280;23671;38.090;-122.570;2023-08-07T11:17:27;101241.63;;;21.13;40.90
37832;BME280;23671;38.090;-122.570;2023-08-07T11:19:56;101244.81;;;21.09;40.86
37832;BME280;23671;38.090;-122.570;2023-08-07T11:22:23;101245.34;;;21.04;40.91
37832;BME280;23671;38.090;-122.570;2023-08-07T11:24:54;101238.97;;;21.05;40.91
37832;BME280;23671;38.090;-122.570;2023-08-07T11:27:24;101240.81;;;21.05;40.87
37832;BME280;23671;38.090;-122.570;2023-08-07T11:29:51;101234.13;;;21.01;40.90
37832;BME280;23671;38.090;-122.570;2023-08-07T11:32:21;101241.47;;;20.99;41.09
37832;BME280;23671;38.090;-122.570;2023-08-07T11:34:51;101245.19;;;20.98;40.98
37832;BME280;23671;38.090;-122.570;2023-08-07T11:37:18;101239.97;;;20.96;41.04
37832;BME280;23671;38.090;-122.570;2023-08-07T11:39:45;101236.81;;;20.93;41.03
37832;BME280;23671;38.090;-122.570;2023-08-07T11:42:14;101240.69;;;20.90;41.14
37832;BME280;23671;38.090;-122.570;2023-08-07T11:44:41;101242.06;;;20.86;41.39
37832;BME280;23671;38.090;-122.570;2023-08-07T11:47:09;101243.91;;;20.86;41.21
37832;BME280;23671;38.090;-122.570;2023-08-07T11:49:37;101235.69;;;20.79;41.13
37832;BME280;23671;38.090;-122.570;2023-08-07T11:52:05;101242.28;;;20.76;41.30
37832;BME280;23671;38.090;-122.570;2023-08-07T11:54:32;101239.59;;;20.76;41.20
37832;BME280;23671;38.090;-122.570;2023-08-07T11:56:59;101242.78;;;20.72;41.18
37832;BME280;23671;38.090;-122.570;2023-08-07T11:59:26;101248.31;;;20.70;41.39
37832;BME280;23671;38.090;-122.570;2023-08-07T12:01:53;101244.13;;;20.68;41.49
37832;BME280;23671;38.090;-122.570;2023-08-07T12:04:21;101243.47;;;20.66;41.57
37832;BME280;23671;38.090;-122.570;2023-08-07T12:06:56;101249.34;;;20.61;41.44
37832;BME280;23671;38.090;-122.570;2023-08-07T12:09:23;101247.31;;;20.63;41.41
37832;BME280;23671;38.090;-122.570;2023-08-07T12:11:58;101246.19;;;20.58;41.35
37832;BME280;23671;38.090;-122.570;2023-08-07T12:14:30;101248.72;;;20.59;41.44
37832;BME280;23671;38.090;-122.570;2023-08-07T12:16:57;101247.72;;;20.52;41.48
37832;BME280;23671;38.090;-122.570;2023-08-07T12:19:24;101246.19;;;20.50;41.44
37832;BME280;23671;38.090;-122.570;2023-08-07T12:21:51;101244.53;;;20.49;41.33
37832;BME280;23671;38.090;-122.570;2023-08-07T12:24:18;101246.75;;;20.45;41.68
37832;BME280;23671;38.090;-122.570;2023-08-07T12:26:46;101245.72;;;20.46;41.46
37832;BME280;23671;38.090;-122.570;2023-08-07T12:29:13;101255.28;;;20.41;41.67
37832;BME280;23671;38.090;-122.570;2023-08-07T12:31:40;101253.78;;;20.38;41.82
37832;BME280;23671;38.090;-122.570;2023-08-07T12:34:07;101256.63;;;20.37;41.73